createdAt,value
2018-03-18T00:00:03.178Z,97166.55
2018-03-18T00:00:34.824Z,97168.22
2018-03-18T00:01:06.458Z,97175.48
2018-03-18T00:01:38.102Z,97170.38
2018-03-18T00:02:11.798Z,97167.01
2018-03-18T00:02:43.948Z,97165.34
2018-03-18T00:03:15.597Z,97165.30
2018-03-18T00:03:47.287Z,97166.99
2018-03-18T00:04:19.012Z,97165.73
2018-03-18T00:04:50.646Z,97176.40
2018-03-18T00:05:22.270Z,97169.27
2018-03-18T00:05:53.894Z,97175.17
2018-03-18T00:06:25.558Z,97170.96
2018-03-18T00:06:57.237Z,97175.66
2018-03-18T00:07:28.875Z,97172.25
2018-03-18T00:08:00.501Z,97171.40
2018-03-18T00:08:32.191Z,97175.66
2018-03-18T00:09:03.786Z,97175.67
2018-03-18T00:09:35.454Z,97170.12
2018-03-18T00:10:07.091Z,97166.67
2018-03-18T00:10:38.719Z,97177.35
2018-03-18T00:11:10.342Z,97189.62
2018-03-18T00:11:42.025Z,97167.98
2018-03-18T00:12:13.650Z,97170.98
2018-03-18T00:12:45.278Z,97175.66
2018-03-18T00:13:16.901Z,97182.44
2018-03-18T00:13:48.531Z,97187.12
2018-03-18T00:14:20.163Z,97179.00
2018-03-18T00:14:51.786Z,97184.52
2018-03-18T00:15:23.454Z,97175.14
2018-03-18T00:15:55.074Z,97173.43
2018-03-18T00:16:26.718Z,97183.20
2018-03-18T00:16:58.392Z,97187.81
2018-03-18T00:17:30.022Z,97192.86
2018-03-18T00:18:01.650Z,97175.36
2018-03-18T00:18:33.318Z,97189.72
2018-03-18T00:19:04.942Z,97182.91
2018-03-18T00:19:36.620Z,97188.61
2018-03-18T00:20:08.226Z,97182.55
2018-03-18T00:20:39.854Z,97188.41
2018-03-18T00:21:11.483Z,97186.11
2018-03-18T00:21:43.114Z,97189.06
2018-03-18T00:22:14.742Z,97178.76
2018-03-18T00:22:46.421Z,97183.00
2018-03-18T00:23:18.049Z,97186.19
2018-03-18T00:23:49.683Z,97182.34
2018-03-18T00:24:21.314Z,97180.11
2018-03-18T00:24:52.939Z,97193.98
2018-03-18T00:25:24.566Z,97190.53
2018-03-18T00:25:56.195Z,97187.98
2018-03-18T00:26:27.828Z,97189.30
2018-03-18T00:26:59.459Z,97190.55
2018-03-18T00:27:31.082Z,97192.60
2018-03-18T00:28:02.753Z,97190.82
2018-03-18T00:28:34.378Z,97192.18
2018-03-18T00:29:06.042Z,97186.58
2018-03-18T00:29:37.666Z,97189.61
2018-03-18T00:30:09.290Z,97184.92
2018-03-18T00:30:40.914Z,97184.07
2018-03-18T00:31:12.538Z,97184.84
2018-03-18T00:31:44.166Z,97188.17
2018-03-18T00:32:16.114Z,97194.63
2018-03-18T00:32:47.746Z,97184.83
2018-03-18T00:33:19.420Z,97188.92
2018-03-18T00:33:51.050Z,97197.84
2018-03-18T00:34:22.674Z,97187.73
2018-03-18T00:34:54.298Z,97195.45
2018-03-18T00:35:25.924Z,97194.97
2018-03-18T00:35:57.550Z,97197.02
2018-03-18T00:36:29.178Z,97195.30
2018-03-18T00:37:00.807Z,97194.87
2018-03-18T00:37:32.434Z,97199.57
2018-03-18T00:38:04.106Z,97193.67
2018-03-18T00:38:35.734Z,97188.94
2018-03-18T00:39:07.395Z,97189.88
2018-03-18T00:39:39.027Z,97190.28
2018-03-18T00:40:10.698Z,97197.17
2018-03-18T00:40:42.326Z,97198.39
2018-03-18T00:41:13.958Z,97193.67
2018-03-18T00:41:45.586Z,97190.38
2018-03-18T00:42:17.222Z,97195.39
2018-03-18T00:42:48.849Z,97191.58
2018-03-18T00:43:20.479Z,97196.78
2018-03-18T00:43:52.150Z,97190.92
2018-03-18T00:44:23.778Z,97198.98
2018-03-18T00:44:55.402Z,97198.01
2018-03-18T00:45:27.029Z,97193.45
2018-03-18T00:45:58.694Z,97187.48
2018-03-18T00:46:30.319Z,97187.52
2018-03-18T00:47:01.943Z,97188.79
2018-03-18T00:47:33.619Z,97192.77
2018-03-18T00:48:05.234Z,97194.81
2018-03-18T00:48:36.858Z,97193.98
2018-03-18T00:49:08.486Z,97183.94
2018-03-18T00:49:40.114Z,97180.19
2018-03-18T00:50:11.737Z,97184.12
2018-03-18T00:50:43.411Z,97174.75
2018-03-18T00:51:15.037Z,97190.84
2018-03-18T00:51:46.669Z,97188.73
2018-03-18T00:52:18.327Z,97191.35
2018-03-18T00:52:49.989Z,97189.64
2018-03-18T00:53:21.610Z,97190.94
2018-03-18T00:53:53.230Z,97177.91
2018-03-18T00:54:24.858Z,97178.52
2018-03-18T00:54:56.489Z,97174.83
2018-03-18T00:55:28.110Z,97191.06
2018-03-18T00:55:59.729Z,97186.48
2018-03-18T00:56:31.358Z,97183.59
2018-03-18T00:57:02.987Z,97181.89
2018-03-18T00:57:34.658Z,97189.55
2018-03-18T00:58:06.285Z,97177.65
2018-03-18T00:58:37.909Z,97186.66
2018-03-18T00:59:09.538Z,97190.06
2018-03-18T00:59:41.167Z,97182.89
2018-03-18T01:00:12.790Z,97188.08
2018-03-18T01:00:44.461Z,97183.42
2018-03-18T01:01:16.085Z,97187.33
2018-03-18T01:01:47.705Z,97182.57
2018-03-18T01:02:19.334Z,97197.95
2018-03-18T01:02:50.968Z,97189.95
2018-03-18T01:03:22.590Z,97186.55
2018-03-18T01:03:54.218Z,97187.03
2018-03-18T01:04:25.846Z,97193.34
2018-03-18T01:04:57.474Z,97179.74
2018-03-18T01:05:29.102Z,97191.31
2018-03-18T01:06:00.786Z,97187.47
2018-03-18T01:06:32.409Z,97180.40
2018-03-18T01:07:04.038Z,97206.75
2018-03-18T01:07:35.662Z,97177.45
2018-03-18T01:08:07.294Z,97183.48
2018-03-18T01:08:38.922Z,97180.49
2018-03-18T01:09:10.551Z,97191.20
2018-03-18T01:09:42.178Z,97190.77
2018-03-18T01:10:13.802Z,97199.28
2018-03-18T01:10:45.426Z,97196.75
2018-03-18T01:11:17.096Z,97186.19
2018-03-18T01:11:48.718Z,97187.06
2018-03-18T01:12:20.342Z,97188.41
2018-03-18T01:12:52.005Z,97186.29
2018-03-18T01:13:23.626Z,97192.24
2018-03-18T01:13:55.245Z,97190.13
2018-03-18T01:14:26.876Z,97188.48
2018-03-18T01:14:58.501Z,97192.32
2018-03-18T01:15:30.126Z,97195.32
2018-03-18T01:16:01.749Z,97186.88
2018-03-18T01:16:33.374Z,97184.36
2018-03-18T01:17:05.038Z,97177.60
2018-03-18T01:17:36.661Z,97193.33
2018-03-18T01:18:08.282Z,97189.88
2018-03-18T01:18:39.911Z,97186.89
2018-03-18T01:19:11.545Z,97183.09
2018-03-18T01:19:43.166Z,97194.19
2018-03-18T01:20:14.795Z,97193.70
2018-03-18T01:20:46.422Z,97183.09
2018-03-18T01:21:18.050Z,97179.34
2018-03-18T01:21:49.713Z,97181.09
2018-03-18T01:22:21.377Z,97183.64
2018-03-18T01:22:53.006Z,97186.63
2018-03-18T01:23:24.631Z,97179.41
2018-03-18T01:23:56.262Z,97185.43
2018-03-18T01:24:27.886Z,97179.89
2018-03-18T01:24:59.553Z,97188.34
2018-03-18T01:25:31.183Z,97190.96
2018-03-18T01:26:02.810Z,97188.34
2018-03-18T01:26:34.434Z,97180.69
2018-03-18T01:27:06.102Z,97171.00
2018-03-18T01:27:37.778Z,97178.58
2018-03-18T01:28:09.402Z,97190.39
2018-03-18T01:28:41.036Z,97172.27
2018-03-18T01:29:12.686Z,97182.02
2018-03-18T01:29:44.310Z,97183.75
2018-03-18T01:30:15.938Z,97176.88
2018-03-18T01:30:47.561Z,97177.28
2018-03-18T01:31:19.230Z,97178.56
2018-03-18T01:31:50.870Z,97180.27
2018-03-18T01:32:22.493Z,97185.34
2018-03-18T01:32:54.158Z,97181.94
2018-03-18T01:33:25.782Z,97181.44
2018-03-18T01:33:57.413Z,97191.13
2018-03-18T01:34:29.038Z,97177.10
2018-03-18T01:35:00.667Z,97182.98
2018-03-18T01:35:32.291Z,97178.31
2018-03-18T01:36:03.914Z,97188.06
2018-03-18T01:36:35.542Z,97193.02
2018-03-18T01:37:07.176Z,97185.28
2018-03-18T01:37:38.806Z,97185.16
2018-03-18T01:38:10.434Z,97189.68
2018-03-18T01:38:42.065Z,97187.47
2018-03-18T01:39:13.685Z,97194.19
2018-03-18T01:39:45.310Z,97188.63
2018-03-18T01:40:16.942Z,97182.13
2018-03-18T01:40:48.618Z,97182.13
2018-03-18T01:41:20.241Z,97178.41
2018-03-18T01:41:51.871Z,97184.57
2018-03-18T01:42:23.499Z,97181.14
2018-03-18T01:42:55.122Z,97183.25
2018-03-18T01:43:26.746Z,97185.87
2018-03-18T01:43:58.369Z,97178.53
2018-03-18T01:44:29.994Z,97177.62
2018-03-18T01:45:01.622Z,97189.95
2018-03-18T01:45:33.247Z,97191.21
2018-03-18T01:46:04.923Z,97174.66
2018-03-18T01:46:36.553Z,97180.19
2018-03-18T01:47:08.222Z,97189.02
2018-03-18T01:47:39.845Z,97175.91
2018-03-18T01:48:11.475Z,97174.58
2018-03-18T01:48:43.106Z,97185.19
2018-03-18T01:49:14.730Z,97179.63
2018-03-18T01:49:46.359Z,97180.45
2018-03-18T01:50:17.991Z,97175.74
2018-03-18T01:50:49.654Z,97187.24
2018-03-18T01:51:21.288Z,97178.80
2018-03-18T01:51:52.924Z,97177.42
2018-03-18T01:52:24.597Z,97175.31
2018-03-18T01:52:56.218Z,97181.25
2018-03-18T01:53:27.862Z,97177.70
2018-03-18T01:53:59.489Z,97176.00
2018-03-18T01:54:31.114Z,97178.94
2018-03-18T01:55:02.743Z,97169.67
2018-03-18T01:55:34.402Z,97168.78
2018-03-18T01:56:06.036Z,97173.52
2018-03-18T01:56:37.671Z,97176.05
2018-03-18T01:57:09.302Z,97176.08
2018-03-18T01:57:40.974Z,97173.17
2018-03-18T01:58:12.603Z,97169.69
2018-03-18T01:58:44.226Z,97180.27
2018-03-18T01:59:15.849Z,97175.55
2018-03-18T01:59:47.479Z,97169.93
2018-03-18T02:00:19.102Z,97166.55
2018-03-18T02:00:50.730Z,97168.27
2018-03-18T02:01:22.354Z,97167.45
2018-03-18T02:01:53.978Z,97166.63
2018-03-18T02:02:25.597Z,97171.80
2018-03-18T02:02:57.270Z,97162.70
2018-03-18T02:03:28.893Z,97160.24
2018-03-18T02:04:00.523Z,97166.12
2018-03-18T02:04:32.159Z,97164.06
2018-03-18T02:05:03.793Z,97170.25
2018-03-18T02:05:35.418Z,97165.25
2018-03-18T02:06:07.050Z,97167.88
2018-03-18T02:06:38.677Z,97173.85
2018-03-18T02:07:10.306Z,97171.20
2018-03-18T02:07:41.934Z,97165.78
2018-03-18T02:08:13.611Z,97167.47
2018-03-18T02:08:45.242Z,97172.58
2018-03-18T02:09:16.870Z,97173.02
2018-03-18T02:09:48.494Z,97168.78
2018-03-18T02:10:20.122Z,97173.19
2018-03-18T02:10:51.746Z,97168.08
2018-03-18T02:11:23.370Z,97174.03
2018-03-18T02:11:54.999Z,97177.42
2018-03-18T02:12:26.626Z,97166.90
2018-03-18T02:12:58.250Z,97165.02
2018-03-18T02:13:29.922Z,97173.94
2018-03-18T02:14:01.558Z,97167.58
2018-03-18T02:14:33.226Z,97172.34
2018-03-18T02:15:04.855Z,97171.59
2018-03-18T02:15:36.486Z,97182.72
2018-03-18T02:16:08.110Z,97172.61
2018-03-18T02:16:39.734Z,97167.58
2018-03-18T02:17:11.362Z,97174.38
2018-03-18T02:17:43.026Z,97174.39
2018-03-18T02:18:14.658Z,97174.00
2018-03-18T02:18:46.287Z,97180.84
2018-03-18T02:19:17.917Z,97170.66
2018-03-18T02:19:49.547Z,97171.02
2018-03-18T02:20:21.176Z,97173.32
2018-03-18T02:20:52.806Z,97168.69
2018-03-18T02:21:24.429Z,97178.42
2018-03-18T02:21:56.074Z,97174.20
2018-03-18T02:22:27.722Z,97175.48
2018-03-18T02:22:59.369Z,97176.36
2018-03-18T02:23:30.993Z,97168.80
2018-03-18T02:24:02.667Z,97189.75
2018-03-18T02:24:34.294Z,97176.70
2018-03-18T02:25:05.917Z,97191.64
2018-03-18T02:25:37.538Z,97183.16
2018-03-18T02:26:09.207Z,97192.99
2018-03-18T02:26:40.834Z,97191.75
2018-03-18T02:27:12.462Z,97184.52
2018-03-18T02:27:44.086Z,97197.27
2018-03-18T02:28:15.710Z,97195.16
2018-03-18T02:28:47.337Z,97188.41
2018-03-18T02:29:19.018Z,97191.84
2018-03-18T02:29:50.682Z,97190.55
2018-03-18T02:30:22.310Z,97194.88
2018-03-18T02:30:53.934Z,97191.55
2018-03-18T02:31:25.554Z,97194.56
2018-03-18T02:31:57.224Z,97197.58
2018-03-18T02:32:28.846Z,97195.45
2018-03-18T02:33:00.469Z,97191.23
2018-03-18T02:33:32.098Z,97195.53
2018-03-18T02:34:03.731Z,97196.41
2018-03-18T02:34:35.368Z,97196.84
2018-03-18T02:35:06.999Z,97195.97
2018-03-18T02:35:38.623Z,97192.59
2018-03-18T02:36:10.248Z,97193.45
2018-03-18T02:36:41.918Z,97197.62
2018-03-18T02:37:13.546Z,97198.97
2018-03-18T02:37:45.171Z,97202.00
2018-03-18T02:38:16.841Z,97192.22
2018-03-18T02:38:48.471Z,97207.59
2018-03-18T02:39:20.102Z,97203.77
2018-03-18T02:39:51.731Z,97201.14
2018-03-18T02:40:23.362Z,97198.19
2018-03-18T02:40:54.999Z,97210.44
2018-03-18T02:41:26.634Z,97196.47
2018-03-18T02:41:58.258Z,97201.56
2018-03-18T02:42:29.936Z,97200.70
2018-03-18T02:43:01.562Z,97201.14
2018-03-18T02:43:33.189Z,97192.69
2018-03-18T02:44:04.815Z,97192.77
2018-03-18T02:44:36.447Z,97190.20
2018-03-18T02:45:08.071Z,97200.84
2018-03-18T02:45:39.698Z,97197.48
2018-03-18T02:46:11.322Z,97205.94
2018-03-18T02:46:42.952Z,97206.84
2018-03-18T02:47:14.603Z,97197.94
2018-03-18T02:47:46.235Z,97204.29
2018-03-18T02:48:17.864Z,97199.20
2018-03-18T02:48:49.493Z,97204.66
2018-03-18T02:49:21.162Z,97192.75
2018-03-18T02:49:52.795Z,97197.50
2018-03-18T02:50:24.419Z,97196.21
2018-03-18T02:50:56.050Z,97198.41
2018-03-18T02:51:27.698Z,97200.06
2018-03-18T02:51:59.335Z,97195.80
2018-03-18T02:52:30.957Z,97200.45
2018-03-18T02:53:02.628Z,97192.84
2018-03-18T02:53:34.282Z,97189.78
2018-03-18T02:54:05.906Z,97192.73
2018-03-18T02:54:37.536Z,97195.20
2018-03-18T02:55:09.177Z,97197.34
2018-03-18T02:55:40.802Z,97197.34
2018-03-18T02:56:12.426Z,97192.69
2018-03-18T02:56:44.055Z,97203.34
2018-03-18T02:57:15.690Z,97192.30
2018-03-18T02:57:47.358Z,97193.92
2018-03-18T02:58:19.001Z,97199.64
2018-03-18T02:58:50.634Z,97195.45
2018-03-18T02:59:22.259Z,97193.67
2018-03-18T02:59:53.930Z,97197.16
2018-03-18T03:00:25.555Z,97203.09
2018-03-18T03:00:57.184Z,97190.22
2018-03-18T03:01:28.811Z,97194.13
2018-03-18T03:02:00.442Z,97191.50
2018-03-18T03:02:32.088Z,97203.80
2018-03-18T03:03:03.713Z,97203.78
2018-03-18T03:03:35.350Z,97194.78
2018-03-18T03:04:06.970Z,97198.17
2018-03-18T03:04:38.599Z,97191.47
2018-03-18T03:05:10.221Z,97199.95
2018-03-18T03:05:41.842Z,97191.84
2018-03-18T03:06:13.469Z,97193.50
2018-03-18T03:06:45.099Z,97194.34
2018-03-18T03:07:16.731Z,97195.16
2018-03-18T03:07:48.359Z,97195.06
2018-03-18T03:08:19.987Z,97194.19
2018-03-18T03:08:51.658Z,97195.91
2018-03-18T03:09:23.274Z,97189.88
2018-03-18T03:09:54.899Z,97192.44
2018-03-18T03:10:26.565Z,97197.14
2018-03-18T03:10:58.191Z,97200.56
2018-03-18T03:11:29.818Z,97182.89
2018-03-18T03:12:01.444Z,97205.66
2018-03-18T03:12:33.065Z,97202.12
2018-03-18T03:13:04.694Z,97199.62
2018-03-18T03:13:36.319Z,97203.78
2018-03-18T03:14:07.941Z,97210.09
2018-03-18T03:14:39.566Z,97201.66
2018-03-18T03:15:11.216Z,97207.03
2018-03-18T03:15:42.882Z,97189.25
2018-03-18T03:16:14.510Z,97206.24
2018-03-18T03:16:46.138Z,97202.00
2018-03-18T03:17:17.762Z,97202.84
2018-03-18T03:17:49.382Z,97208.40
2018-03-18T03:18:21.014Z,97201.56
2018-03-18T03:18:52.643Z,97211.78
2018-03-18T03:19:24.334Z,97192.91
2018-03-18T03:19:55.962Z,97202.11
2018-03-18T03:20:27.586Z,97195.99
2018-03-18T03:20:59.209Z,97210.16
2018-03-18T03:21:30.836Z,97199.06
2018-03-18T03:22:02.466Z,97199.88
2018-03-18T03:22:34.093Z,97204.72
2018-03-18T03:23:05.725Z,97206.86
2018-03-18T03:23:37.346Z,97201.75
2018-03-18T03:24:08.975Z,97217.30
2018-03-18T03:24:40.598Z,97211.55
2018-03-18T03:25:12.288Z,97204.91
2018-03-18T03:25:43.914Z,97216.89
2018-03-18T03:26:15.538Z,97209.30
2018-03-18T03:26:47.162Z,97209.42
2018-03-18T03:27:18.787Z,97208.21
2018-03-18T03:27:50.414Z,97212.66
2018-03-18T03:28:22.046Z,97212.23
2018-03-18T03:28:53.673Z,97205.83
2018-03-18T03:29:25.297Z,97217.20
2018-03-18T03:29:56.926Z,97212.48
2018-03-18T03:30:28.596Z,97204.73
2018-03-18T03:31:00.226Z,97211.54
2018-03-18T03:31:31.869Z,97206.88
2018-03-18T03:32:03.498Z,97201.33
2018-03-18T03:32:35.123Z,97214.44
2018-03-18T03:33:06.751Z,97203.36
2018-03-18T03:33:38.383Z,97207.69
2018-03-18T03:34:10.032Z,97208.12
2018-03-18T03:34:41.669Z,97205.49
2018-03-18T03:35:13.290Z,97214.84
2018-03-18T03:35:44.950Z,97209.66
2018-03-18T03:36:16.578Z,97208.80
2018-03-18T03:36:48.244Z,97216.39
2018-03-18T03:37:19.865Z,97217.74
2018-03-18T03:37:51.499Z,97210.08
2018-03-18T03:38:23.125Z,97221.55
2018-03-18T03:38:54.754Z,97219.92
2018-03-18T03:39:26.377Z,97216.53
2018-03-18T03:39:58.008Z,97222.47
2018-03-18T03:40:29.670Z,97219.09
2018-03-18T03:41:01.339Z,97213.59
2018-03-18T03:41:32.966Z,97204.66
2018-03-18T03:42:04.590Z,97219.45
2018-03-18T03:42:36.258Z,97214.44
2018-03-18T03:43:07.881Z,97219.09
2018-03-18T03:43:39.506Z,97227.23
2018-03-18T03:44:11.138Z,97221.24
2018-03-18T03:44:42.770Z,97226.30
2018-03-18T03:45:14.394Z,97226.33
2018-03-18T03:45:46.022Z,97210.67
2018-03-18T03:46:17.655Z,97213.66
2018-03-18T03:46:49.282Z,97216.97
2018-03-18T03:47:20.910Z,97224.62
2018-03-18T03:47:52.578Z,97220.72
2018-03-18T03:48:24.206Z,97214.77
2018-03-18T03:48:55.834Z,97222.81
2018-03-18T03:49:27.458Z,97229.27
2018-03-18T03:49:59.086Z,97227.52
2018-03-18T03:50:30.710Z,97222.05
2018-03-18T03:51:02.330Z,97228.80
2018-03-18T03:51:33.959Z,97219.44
2018-03-18T03:52:05.589Z,97232.17
2018-03-18T03:52:37.253Z,97236.38
2018-03-18T03:53:08.874Z,97225.32
2018-03-18T03:53:40.498Z,97227.50
2018-03-18T03:54:12.122Z,97240.59
2018-03-18T03:54:43.746Z,97232.92
2018-03-18T03:55:15.413Z,97232.97
2018-03-18T03:55:47.046Z,97234.71
2018-03-18T03:56:18.670Z,97231.74
2018-03-18T03:56:50.303Z,97234.76
2018-03-18T03:57:21.930Z,97237.63
2018-03-18T03:57:53.558Z,97239.69
2018-03-18T03:58:25.181Z,97237.08
2018-03-18T03:58:56.845Z,97233.78
2018-03-18T03:59:28.466Z,97230.00
2018-03-18T04:00:00.139Z,97233.02
2018-03-18T04:00:31.775Z,97232.55
2018-03-18T04:01:03.406Z,97239.41
2018-03-18T04:01:35.035Z,97233.90
2018-03-18T04:02:06.658Z,97236.08
2018-03-18T04:02:38.282Z,97236.44
2018-03-18T04:03:09.906Z,97231.41
2018-03-18T04:03:41.578Z,97229.27
2018-03-18T04:04:13.207Z,97234.71
2018-03-18T04:04:44.834Z,97233.53
2018-03-18T04:05:16.508Z,97235.66
2018-03-18T04:05:48.138Z,97231.83
2018-03-18T04:06:19.761Z,97228.09
2018-03-18T04:06:51.392Z,97226.93
2018-03-18T04:07:23.018Z,97229.39
2018-03-18T04:07:54.650Z,97236.68
2018-03-18T04:08:26.277Z,97239.72
2018-03-18T04:08:57.905Z,97224.52
2018-03-18T04:09:29.531Z,97235.09
2018-03-18T04:10:01.159Z,97230.83
2018-03-18T04:10:32.819Z,97227.02
2018-03-18T04:11:04.446Z,97217.16
2018-03-18T04:11:36.113Z,97227.41
2018-03-18T04:12:07.734Z,97238.90
2018-03-18T04:12:39.358Z,97226.51
2018-03-18T04:13:11.093Z,97225.79
2018-03-18T04:13:42.718Z,97230.12
2018-03-18T04:14:14.342Z,97230.08
2018-03-18T04:14:45.967Z,97222.05
2018-03-18T04:15:17.594Z,97230.08
2018-03-18T04:15:49.226Z,97222.91
2018-03-18T04:16:20.850Z,97222.44
2018-03-18T04:16:52.479Z,97215.72
2018-03-18T04:17:24.110Z,97231.49
2018-03-18T04:17:55.730Z,97224.45
2018-03-18T04:18:27.393Z,97229.53
2018-03-18T04:18:59.018Z,97224.38
2018-03-18T04:19:30.649Z,97235.07
2018-03-18T04:20:02.286Z,97222.39
2018-03-18T04:20:33.914Z,97230.05
2018-03-18T04:21:05.541Z,97227.06
2018-03-18T04:21:37.173Z,97225.02
2018-03-18T04:22:08.798Z,97218.59
2018-03-18T04:22:40.462Z,97222.49
2018-03-18T04:23:12.135Z,97225.94
2018-03-18T04:23:43.782Z,97220.86
2018-03-18T04:24:15.409Z,97219.08
2018-03-18T04:24:47.038Z,97224.19
2018-03-18T04:25:18.658Z,97229.72
2018-03-18T04:25:50.282Z,97217.88
2018-03-18T04:26:21.910Z,97221.30
2018-03-18T04:26:53.662Z,97225.53
2018-03-18T04:27:25.286Z,97221.73
2018-03-18T04:27:56.954Z,97228.09
2018-03-18T04:28:28.578Z,97222.97
2018-03-18T04:29:00.207Z,97220.08
2018-03-18T04:29:31.830Z,97221.36
2018-03-18T04:30:03.454Z,97223.42
2018-03-18T04:30:35.082Z,97219.17
2018-03-18T04:31:06.715Z,97220.03
2018-03-18T04:31:38.346Z,97223.41
2018-03-18T04:32:09.975Z,97227.58
2018-03-18T04:32:41.634Z,97218.64
2018-03-18T04:33:13.266Z,97219.57
2018-03-18T04:33:44.892Z,97224.20
2018-03-18T04:34:16.562Z,97226.73
2018-03-18T04:34:48.186Z,97224.63
2018-03-18T04:35:19.810Z,97224.16
2018-03-18T04:35:51.450Z,97226.28
2018-03-18T04:36:23.080Z,97218.22
2018-03-18T04:36:54.702Z,97229.27
2018-03-18T04:37:26.330Z,97222.41
2018-03-18T04:37:58.002Z,97229.18
2018-03-18T04:38:29.626Z,97227.06
2018-03-18T04:39:01.250Z,97234.35
2018-03-18T04:39:32.873Z,97225.39
2018-03-18T04:40:04.529Z,97224.55
2018-03-18T04:40:36.149Z,97224.16
2018-03-18T04:41:07.783Z,97223.73
2018-03-18T04:41:39.410Z,97223.66
2018-03-18T04:42:11.035Z,97226.23
2018-03-18T04:42:42.657Z,97232.15
2018-03-18T04:43:14.285Z,97229.62
2018-03-18T04:43:45.910Z,97229.18
2018-03-18T04:44:17.538Z,97221.91
2018-03-18T04:44:49.162Z,97228.75
2018-03-18T04:45:20.818Z,97227.84
2018-03-18T04:45:52.442Z,97228.34
2018-03-18T04:46:24.074Z,97233.00
2018-03-18T04:46:55.703Z,97229.55
2018-03-18T04:47:27.321Z,97226.06
2018-03-18T04:47:58.946Z,97230.25
2018-03-18T04:48:30.570Z,97225.20
2018-03-18T04:49:02.243Z,97233.64
2018-03-18T04:49:33.913Z,97229.38
2018-03-18T04:50:05.534Z,97226.84
2018-03-18T04:50:37.158Z,97233.70
2018-03-18T04:51:08.786Z,97234.97
2018-03-18T04:51:40.414Z,97231.51
2018-03-18T04:52:12.096Z,97231.92
2018-03-18T04:52:43.739Z,97229.88
2018-03-18T04:53:15.366Z,97224.77
2018-03-18T04:53:46.992Z,97224.70
2018-03-18T04:54:18.628Z,97225.56
2018-03-18T04:54:50.268Z,97227.70
2018-03-18T04:55:21.898Z,97237.02
2018-03-18T04:55:53.522Z,97238.80
2018-03-18T04:56:25.146Z,97236.63
2018-03-18T04:56:56.775Z,97227.17
2018-03-18T04:57:28.402Z,97233.91
2018-03-18T04:58:00.026Z,97230.22
2018-03-18T04:58:31.655Z,97230.58
2018-03-18T04:59:03.286Z,97241.54
2018-03-18T04:59:34.915Z,97229.64
2018-03-18T05:00:06.538Z,97222.34
2018-03-18T05:00:38.162Z,97234.66
2018-03-18T05:01:09.850Z,97232.52
2018-03-18T05:01:41.474Z,97229.11
2018-03-18T05:02:13.103Z,97227.84
2018-03-18T05:02:44.730Z,97238.89
2018-03-18T05:03:16.358Z,97240.14
2018-03-18T05:03:47.983Z,97241.80
2018-03-18T05:04:19.606Z,97238.81
2018-03-18T05:04:51.230Z,97237.53
2018-03-18T05:05:22.907Z,97237.53
2018-03-18T05:05:54.557Z,97234.55
2018-03-18T05:06:26.226Z,97230.73
2018-03-18T05:06:57.901Z,97232.28
2018-03-18T05:07:29.535Z,97235.22
2018-03-18T05:08:01.163Z,97236.09
2018-03-18T05:08:32.790Z,97241.17
2018-03-18T05:09:04.414Z,97237.38
2018-03-18T05:09:36.078Z,97230.67
2018-03-18T05:10:07.711Z,97235.27
2018-03-18T05:10:39.342Z,97237.27
2018-03-18T05:11:10.966Z,97229.31
2018-03-18T05:11:42.591Z,97239.42
2018-03-18T05:12:14.218Z,97238.23
2018-03-18T05:12:45.862Z,97243.81
2018-03-18T05:13:17.490Z,97236.62
2018-03-18T05:13:49.162Z,97231.52
2018-03-18T05:14:20.791Z,97235.05
2018-03-18T05:14:52.418Z,97235.34
2018-03-18T05:15:24.045Z,97242.63
2018-03-18T05:15:55.675Z,97237.13
2018-03-18T05:16:27.298Z,97235.41
2018-03-18T05:16:58.926Z,97229.88
2018-03-18T05:17:30.550Z,97240.58
2018-03-18T05:18:02.178Z,97231.34
2018-03-18T05:18:33.802Z,97239.84
2018-03-18T05:19:05.473Z,97246.09
2018-03-18T05:19:37.099Z,97252.58
2018-03-18T05:20:08.722Z,97244.42
2018-03-18T05:20:40.341Z,97240.59
2018-03-18T05:21:11.966Z,97245.70
2018-03-18T05:21:43.594Z,97244.48
2018-03-18T05:22:15.317Z,97248.32
2018-03-18T05:22:46.943Z,97250.04
2018-03-18T05:23:18.570Z,97255.55
2018-03-18T05:23:50.203Z,97241.51
2018-03-18T05:24:21.869Z,97239.81
2018-03-18T05:24:53.499Z,97241.46
2018-03-18T05:25:25.126Z,97242.31
2018-03-18T05:25:56.794Z,97239.84
2018-03-18T05:26:28.431Z,97240.67
2018-03-18T05:27:00.054Z,97242.56
2018-03-18T05:27:31.691Z,97244.57
2018-03-18T05:28:03.322Z,97240.69
2018-03-18T05:28:34.951Z,97237.02
2018-03-18T05:29:06.627Z,97239.14
2018-03-18T05:29:38.262Z,97235.67
2018-03-18T05:30:09.895Z,97236.52
2018-03-18T05:30:41.526Z,97240.34
2018-03-18T05:31:13.154Z,97231.52
2018-03-18T05:31:44.782Z,97226.42
2018-03-18T05:32:16.421Z,97233.64
2018-03-18T05:32:48.066Z,97232.00
2018-03-18T05:33:19.697Z,97236.26
2018-03-18T05:33:51.322Z,97240.92
2018-03-18T05:34:22.993Z,97241.70
2018-03-18T05:34:54.619Z,97240.06
2018-03-18T05:35:26.243Z,97239.73
2018-03-18T05:35:57.866Z,97245.31
2018-03-18T05:36:29.494Z,97236.86
2018-03-18T05:37:01.126Z,97239.05
2018-03-18T05:37:32.753Z,97246.98
2018-03-18T05:38:04.394Z,97242.34
2018-03-18T05:38:36.078Z,97241.92
2018-03-18T05:39:07.726Z,97247.89
2018-03-18T05:39:39.367Z,97256.83
2018-03-18T05:40:10.989Z,97249.60
2018-03-18T05:40:42.613Z,97247.48
2018-03-18T05:41:14.242Z,97244.47
2018-03-18T05:41:45.870Z,97248.30
2018-03-18T05:42:17.494Z,97237.70
2018-03-18T05:42:49.122Z,97241.52
2018-03-18T05:43:20.817Z,97252.62
2018-03-18T05:43:52.443Z,97254.76
2018-03-18T05:44:24.071Z,97247.61
2018-03-18T05:44:55.703Z,97253.09
2018-03-18T05:45:27.332Z,97256.13
2018-03-18T05:45:58.957Z,97245.86
2018-03-18T05:46:30.626Z,97254.78
2018-03-18T05:47:02.258Z,97250.11
2018-03-18T05:47:33.882Z,97252.23
2018-03-18T05:48:05.550Z,97254.37
2018-03-18T05:48:37.178Z,97252.22
2018-03-18T05:49:08.802Z,97252.64
2018-03-18T05:49:40.435Z,97251.73
2018-03-18T05:50:12.066Z,97262.66
2018-03-18T05:50:43.747Z,97258.84
2018-03-18T05:51:15.374Z,97261.90
2018-03-18T05:51:46.998Z,97255.60
2018-03-18T05:52:18.629Z,97237.71
2018-03-18T05:52:50.258Z,97256.03
2018-03-18T05:53:21.882Z,97261.91
2018-03-18T05:53:53.510Z,97257.13
2018-03-18T05:54:25.200Z,97255.11
2018-03-18T05:54:56.838Z,97255.81
2018-03-18T05:55:28.462Z,97261.34
2018-03-18T05:56:00.135Z,97262.60
2018-03-18T05:56:31.784Z,97256.37
2018-03-18T05:57:03.426Z,97257.94
2018-03-18T05:57:35.055Z,97254.12
2018-03-18T05:58:06.686Z,97267.33
2018-03-18T05:58:38.312Z,97270.73
2018-03-18T05:59:09.954Z,97263.45
2018-03-18T05:59:41.577Z,97259.55
2018-03-18T06:00:13.201Z,97264.22
2018-03-18T06:00:44.869Z,97273.22
2018-03-18T06:01:16.490Z,97257.02
2018-03-18T06:01:48.118Z,97269.76
2018-03-18T06:02:19.748Z,97268.05
2018-03-18T06:02:51.378Z,97269.31
2018-03-18T06:03:23.006Z,97265.92
2018-03-18T06:03:54.633Z,97261.30
2018-03-18T06:04:26.259Z,97256.63
2018-03-18T06:04:57.894Z,97268.03
2018-03-18T06:05:29.562Z,97261.72
2018-03-18T06:06:01.187Z,97263.38
2018-03-18T06:06:32.846Z,97272.30
2018-03-18T06:07:04.502Z,97262.17
2018-03-18T06:07:36.126Z,97273.63
2018-03-18T06:08:07.758Z,97265.91
2018-03-18T06:08:39.382Z,97268.09
2018-03-18T06:09:11.014Z,97271.87
2018-03-18T06:09:42.638Z,97274.47
2018-03-18T06:10:14.262Z,97275.70
2018-03-18T06:10:45.885Z,97269.74
2018-03-18T06:11:17.514Z,97265.47